This is the latest recevied weather packets stored in our database for station/object WA4TPR. If no packets are shown the sender has not sent any weather packets the latest 10 day(s).
| Time | Temp. | Humidity | Pressure | Rain* | Wind** | Luminosity | Snow |
|---|---|---|---|---|---|---|---|
| 1778084523 | 31.67° C | 56% | 1021.1 hPa | 0 mm | - | 817 W/m² | - |
| 1778084220 | 31.67° C | 56% | 1021.3 hPa | 0 mm | - | 803 W/m² | - |
| 1778083917 | 31.11° C | 60% | 1021.3 hPa | 0 mm | - | 786 W/m² | - |
| 1778083615 | 31.11° C | 60% | 1021.3 hPa | 0 mm | - | 770 W/m² | - |
| 1778083311 | 31.11° C | 59% | 1021.1 hPa | 0 mm | - | 768 W/m² | - |
| 1778083010 | 30.56° C | 62% | 1021.2 hPa | 0 mm | - | 757 W/m² | - |
| 1778082706 | 30.56° C | 64% | 1021.4 hPa | 0 mm | - | 743 W/m² | - |
| 1778081568 | 30° C | 67% | 1021.3 hPa | 0 mm | - | 710 W/m² | - |
| 1778081265 | 30° C | 68% | 1021.4 hPa | 0 mm | - | 684 W/m² | - |
| 1778080963 | 29.44° C | 70% | 1021.5 hPa | 0 mm | - | 689 W/m² | - |
| 1778080661 | 30° C | 68% | 1021.5 hPa | 0 mm | - | 651 W/m² | - |
| 1778080357 | 30° C | 70% | 1021.5 hPa | 0 mm | - | 628 W/m² | - |
| 1778080054 | 30° C | 71% | 1021.5 hPa | 0 mm | - | 651 W/m² | - |
| 1778079751 | 29.44° C | 72% | 1021.6 hPa | 0 mm | - | 634 W/m² | - |
| 1778079448 | 28.89° C | 74% | 1021.5 hPa | 0 mm | - | 604 W/m² | - |
| 1778079145 | 28.89° C | 74% | 1021.6 hPa | 0 mm | - | 618 W/m² | - |
| 1778078842 | 28.89° C | 76% | 1021.3 hPa | 0 mm | - | 606 W/m² | - |
| 1778078539 | 28.33° C | 78% | 1021.4 hPa | 0 mm | - | 579 W/m² | - |
| 1778078237 | 28.89° C | 76% | 1021.3 hPa | 0 mm | - | 565 W/m² | - |
| 1778077934 | 28.33° C | 79% | 1021.4 hPa | 0 mm | - | 557 W/m² | - |
| 1778077633 | 28.33° C | 78% | 1021.1 hPa | 0 mm | - | 535 W/m² | - |
| 1778077330 | 28.33° C | 79% | 1021.2 hPa | 0 mm | - | 514 W/m² | - |
| 1778077028 | 27.78° C | 81% | 1021.5 hPa | 0 mm | - | 493 W/m² | - |
| 1778076726 | 27.22° C | 82% | 1021.4 hPa | 0 mm | - | 460 W/m² | - |
| 1778076424 | 26.67° C | 84% | 1021.5 hPa | 0 mm | - | 470 W/m² | - |
* Rain latest hour (hover to see other rain measurements)
** Current wind speed in m/s (hover to see current wind gust speed)